sensor_id;sensor_type;location;lat;lon;timestamp;P1;durP1;ratioP1;P2;durP2;ratioP2
12312;SDS011;6220;53.580;9.758;2023-07-13T00:02:02;5.47;;;2.10;;
12312;SDS011;6220;53.580;9.758;2023-07-13T00:04:28;4.50;;;2.07;;
12312;SDS011;6220;53.580;9.758;2023-07-13T00:06:53;3.50;;;2.13;;
12312;SDS011;6220;53.580;9.758;2023-07-13T00:09:19;7.13;;;2.20;;
12312;SDS011;6220;53.580;9.758;2023-07-13T00:11:54;3.47;;;2.37;;
12312;SDS011;6220;53.580;9.758;2023-07-13T00:14:20;6.27;;;2.30;;
12312;SDS011;6220;53.580;9.758;2023-07-13T00:16:46;3.87;;;1.87;;
12312;SDS011;6220;53.580;9.758;2023-07-13T00:19:12;5.27;;;2.10;;
12312;SDS011;6220;53.580;9.758;2023-07-13T00:21:41;4.37;;;2.13;;
12312;SDS011;6220;53.580;9.758;2023-07-13T00:24:08;4.37;;;1.90;;
12312;SDS011;6220;53.580;9.758;2023-07-13T00:26:38;4.33;;;2.07;;
12312;SDS011;6220;53.580;9.758;2023-07-13T00:29:04;5.20;;;2.40;;
12312;SDS011;6220;53.580;9.758;2023-07-13T00:31:31;4.50;;;1.90;;
12312;SDS011;6220;53.580;9.758;2023-07-13T00:33:56;3.37;;;2.03;;
12312;SDS011;6220;53.580;9.758;2023-07-13T00:36:22;3.57;;;2.20;;
12312;SDS011;6220;53.580;9.758;2023-07-13T00:38:47;6.27;;;2.10;;
12312;SDS011;6220;53.580;9.758;2023-07-13T00:41:12;2.80;;;2.30;;
12312;SDS011;6220;53.580;9.758;2023-07-13T00:43:38;4.33;;;2.47;;
12312;SDS011;6220;53.580;9.758;2023-07-13T00:46:36;4.50;;;2.17;;
12312;SDS011;6220;53.580;9.758;2023-07-13T00:48:57;4.97;;;2.00;;
12312;SDS011;6220;53.580;9.758;2023-07-13T00:51:26;3.93;;;2.37;;
12312;SDS011;6220;53.580;9.758;2023-07-13T00:53:54;5.10;;;2.50;;
12312;SDS011;6220;53.580;9.758;2023-07-13T00:56:22;5.03;;;3.67;;
12312;SDS011;6220;53.580;9.758;2023-07-13T00:58:47;6.73;;;4.33;;
12312;SDS011;6220;53.580;9.758;2023-07-13T01:01:13;4.37;;;2.80;;
12312;SDS011;6220;53.580;9.758;2023-07-13T01:03:38;5.07;;;2.60;;
12312;SDS011;6220;53.580;9.758;2023-07-13T01:06:05;6.83;;;2.20;;
12312;SDS011;6220;53.580;9.758;2023-07-13T01:08:31;3.93;;;2.30;;
12312;SDS011;6220;53.580;9.758;2023-07-13T01:10:57;5.80;;;2.37;;
12312;SDS011;6220;53.580;9.758;2023-07-13T01:13:23;5.47;;;2.60;;
12312;SDS011;6220;53.580;9.758;2023-07-13T01:15:49;5.10;;;2.90;;
12312;SDS011;6220;53.580;9.758;2023-07-13T01:18:18;6.40;;;3.00;;
12312;SDS011;6220;53.580;9.758;2023-07-13T01:20:52;4.77;;;2.90;;
12312;SDS011;6220;53.580;9.758;2023-07-13T01:23:22;3.77;;;2.90;;
12312;SDS011;6220;53.580;9.758;2023-07-13T01:25:48;6.93;;;3.03;;
12312;SDS011;6220;53.580;9.758;2023-07-13T01:28:14;5.63;;;3.10;;
12312;SDS011;6220;53.580;9.758;2023-07-13T01:30:42;4.93;;;3.10;;
12312;SDS011;6220;53.580;9.758;2023-07-13T01:33:10;4.60;;;3.20;;
12312;SDS011;6220;53.580;9.758;2023-07-13T01:35:40;5.17;;;3.07;;
12312;SDS011;6220;53.580;9.758;2023-07-13T01:38:05;8.10;;;3.37;;
12312;SDS011;6220;53.580;9.758;2023-07-13T01:40:31;4.77;;;3.40;;
12312;SDS011;6220;53.580;9.758;2023-07-13T01:42:57;4.17;;;3.33;;
12312;SDS011;6220;53.580;9.758;2023-07-13T01:45:23;7.50;;;3.20;;
12312;SDS011;6220;53.580;9.758;2023-07-13T01:47:48;5.40;;;3.07;;
12312;SDS011;6220;53.580;9.758;2023-07-13T01:50:13;7.37;;;3.70;;
12312;SDS011;6220;53.580;9.758;2023-07-13T01:52:39;4.50;;;3.60;;
12312;SDS011;6220;53.580;9.758;2023-07-13T01:55:04;6.07;;;3.63;;
12312;SDS011;6220;53.580;9.758;2023-07-13T01:57:30;6.77;;;3.70;;
12312;SDS011;6220;53.580;9.758;2023-07-13T01:59:55;6.03;;;3.93;;
12312;SDS011;6220;53.580;9.758;2023-07-13T02:02:21;6.27;;;3.90;;
12312;SDS011;6220;53.580;9.758;2023-07-13T02:04:46;8.83;;;3.70;;
12312;SDS011;6220;53.580;9.758;2023-07-13T02:07:11;6.53;;;3.67;;
12312;SDS011;6220;53.580;9.758;2023-07-13T02:09:37;5.73;;;3.57;;
12312;SDS011;6220;53.580;9.758;2023-07-13T02:12:02;5.20;;;3.63;;
12312;SDS011;6220;53.580;9.758;2023-07-13T02:14:28;5.77;;;3.73;;
12312;SDS011;6220;53.580;9.758;2023-07-13T02:16:53;8.03;;;4.20;;
12312;SDS011;6220;53.580;9.758;2023-07-13T02:19:18;5.23;;;4.07;;
12312;SDS011;6220;53.580;9.758;2023-07-13T02:21:44;5.67;;;3.70;;
12312;SDS011;6220;53.580;9.758;2023-07-13T02:24:09;7.30;;;4.03;;
12312;SDS011;6220;53.580;9.758;2023-07-13T02:26:34;7.70;;;4.30;;
12312;SDS011;6220;53.580;9.758;2023-07-13T02:29:01;6.83;;;4.00;;
12312;SDS011;6220;53.580;9.758;2023-07-13T02:31:26;9.60;;;4.57;;
12312;SDS011;6220;53.580;9.758;2023-07-13T02:33:51;6.47;;;4.17;;
12312;SDS011;6220;53.580;9.758;2023-07-13T02:36:17;7.20;;;4.30;;
12312;SDS011;6220;53.580;9.758;2023-07-13T02:38:43;5.73;;;3.70;;
12312;SDS011;6220;53.580;9.758;2023-07-13T02:41:09;4.93;;;4.27;;
12312;SDS011;6220;53.580;9.758;2023-07-13T02:43:34;4.93;;;3.97;;
12312;SDS011;6220;53.580;9.758;2023-07-13T02:46:02;6.97;;;4.03;;
12312;SDS011;6220;53.580;9.758;2023-07-13T02:48:34;6.93;;;4.70;;
12312;SDS011;6220;53.580;9.758;2023-07-13T02:50:59;5.80;;;4.10;;
12312;SDS011;6220;53.580;9.758;2023-07-13T02:53:25;6.77;;;4.67;;
12312;SDS011;6220;53.580;9.758;2023-07-13T02:55:50;6.33;;;4.90;;
12312;SDS011;6220;53.580;9.758;2023-07-13T02:58:15;7.40;;;4.33;;
12312;SDS011;6220;53.580;9.758;2023-07-13T03:00:42;7.70;;;4.20;;
12312;SDS011;6220;53.580;9.758;2023-07-13T03:03:08;5.13;;;4.60;;
12312;SDS011;6220;53.580;9.758;2023-07-13T03:05:33;9.03;;;3.97;;
12312;SDS011;6220;53.580;9.758;2023-07-13T03:07:58;8.63;;;4.20;;
12312;SDS011;6220;53.580;9.758;2023-07-13T03:10:24;4.53;;;3.77;;
12312;SDS011;6220;53.580;9.758;2023-07-13T03:12:50;6.60;;;5.20;;
12312;SDS011;6220;53.580;9.758;2023-07-13T03:15:15;8.90;;;4.53;;
12312;SDS011;6220;53.580;9.758;2023-07-13T03:17:41;4.70;;;3.93;;
12312;SDS011;6220;53.580;9.758;2023-07-13T03:20:06;7.83;;;4.30;;
12312;SDS011;6220;53.580;9.758;2023-07-13T03:22:33;8.67;;;4.53;;
12312;SDS011;6220;53.580;9.758;2023-07-13T03:24:59;7.30;;;4.47;;
12312;SDS011;6220;53.580;9.758;2023-07-13T03:27:24;5.10;;;4.20;;
12312;SDS011;6220;53.580;9.758;2023-07-13T03:29:50;4.33;;;3.93;;
12312;SDS011;6220;53.580;9.758;2023-07-13T03:32:15;6.63;;;4.97;;
12312;SDS011;6220;53.580;9.758;2023-07-13T03:34:40;4.80;;;4.00;;
12312;SDS011;6220;53.580;9.758;2023-07-13T03:37:06;7.27;;;4.00;;
12312;SDS011;6220;53.580;9.758;2023-07-13T03:39:31;6.40;;;4.50;;
12312;SDS011;6220;53.580;9.758;2023-07-13T03:41:56;5.17;;;3.80;;
12312;SDS011;6220;53.580;9.758;2023-07-13T03:44:22;6.13;;;4.30;;
12312;SDS011;6220;53.580;9.758;2023-07-13T03:46:47;4.37;;;3.90;;
12312;SDS011;6220;53.580;9.758;2023-07-13T03:49:13;6.87;;;4.07;;
12312;SDS011;6220;53.580;9.758;2023-07-13T03:51:38;5.23;;;4.17;;
12312;SDS011;6220;53.580;9.758;2023-07-13T03:54:03;6.87;;;4.07;;
12312;SDS011;6220;53.580;9.758;2023-07-13T03:56:29;6.27;;;3.90;;
12312;SDS011;6220;53.580;9.758;2023-07-13T03:58:55;9.03;;;4.67;;
12312;SDS011;6220;53.580;9.758;2023-07-13T04:01:21;5.80;;;4.07;;
12312;SDS011;6220;53.580;9.758;2023-07-13T04:03:47;6.00;;;4.10;;
12312;SDS011;6220;53.580;9.758;2023-07-13T04:06:18;7.57;;;4.40;;
12312;SDS011;6220;53.580;9.758;2023-07-13T04:08:49;7.20;;;3.97;;
12312;SDS011;6220;53.580;9.758;2023-07-13T04:11:17;6.67;;;4.27;;
12312;SDS011;6220;53.580;9.758;2023-07-13T04:13:43;6.70;;;3.93;;
12312;SDS011;6220;53.580;9.758;2023-07-13T04:16:09;6.83;;;4.17;;
12312;SDS011;6220;53.580;9.758;2023-07-13T04:18:34;8.43;;;4.23;;
12312;SDS011;6220;53.580;9.758;2023-07-13T04:21:00;5.57;;;3.93;;
12312;SDS011;6220;53.580;9.758;2023-07-13T04:23:25;6.90;;;4.03;;
12312;SDS011;6220;53.580;9.758;2023-07-13T04:25:51;9.40;;;4.27;;
12312;SDS011;6220;53.580;9.758;2023-07-13T04:28:18;8.03;;;4.20;;
12312;SDS011;6220;53.580;9.758;2023-07-13T04:30:44;6.40;;;4.33;;
12312;SDS011;6220;53.580;9.758;2023-07-13T04:33:10;6.83;;;3.93;;
12312;SDS011;6220;53.580;9.758;2023-07-13T04:35:35;6.50;;;4.40;;
12312;SDS011;6220;53.580;9.758;2023-07-13T04:38:02;7.13;;;4.57;;
12312;SDS011;6220;53.580;9.758;2023-07-13T04:40:27;7.03;;;4.13;;
12312;SDS011;6220;53.580;9.758;2023-07-13T04:42:53;8.43;;;4.20;;
12312;SDS011;6220;53.580;9.758;2023-07-13T04:45:19;8.10;;;4.40;;
12312;SDS011;6220;53.580;9.758;2023-07-13T04:47:44;6.90;;;4.40;;
12312;SDS011;6220;53.580;9.758;2023-07-13T04:50:12;8.53;;;4.20;;
12312;SDS011;6220;53.580;9.758;2023-07-13T04:52:40;7.20;;;4.13;;
12312;SDS011;6220;53.580;9.758;2023-07-13T04:55:06;12.03;;;5.10;;
12312;SDS011;6220;53.580;9.758;2023-07-13T04:57:31;6.33;;;4.10;;
12312;SDS011;6220;53.580;9.758;2023-07-13T04:59:57;8.77;;;3.90;;
12312;SDS011;6220;53.580;9.758;2023-07-13T05:02:25;8.03;;;4.30;;
12312;SDS011;6220;53.580;9.758;2023-07-13T05:04:52;6.67;;;4.77;;
12312;SDS011;6220;53.580;9.758;2023-07-13T05:07:17;7.33;;;4.20;;
12312;SDS011;6220;53.580;9.758;2023-07-13T05:09:42;9.17;;;4.50;;
12312;SDS011;6220;53.580;9.758;2023-07-13T05:12:08;6.80;;;4.13;;
12312;SDS011;6220;53.580;9.758;2023-07-13T05:14:34;8.17;;;4.63;;
12312;SDS011;6220;53.580;9.758;2023-07-13T05:17:00;6.23;;;4.30;;
12312;SDS011;6220;53.580;9.758;2023-07-13T05:19:25;11.23;;;4.70;;
12312;SDS011;6220;53.580;9.758;2023-07-13T05:21:51;9.70;;;4.87;;
12312;SDS011;6220;53.580;9.758;2023-07-13T05:24:16;7.10;;;4.97;;
12312;SDS011;6220;53.580;9.758;2023-07-13T05:26:42;10.70;;;4.73;;
12312;SDS011;6220;53.580;9.758;2023-07-13T05:29:07;10.70;;;4.50;;
12312;SDS011;6220;53.580;9.758;2023-07-13T05:31:32;11.23;;;4.40;;
12312;SDS011;6220;53.580;9.758;2023-07-13T05:33:58;12.03;;;4.77;;
12312;SDS011;6220;53.580;9.758;2023-07-13T05:36:23;7.37;;;4.43;;
12312;SDS011;6220;53.580;9.758;2023-07-13T05:38:48;9.43;;;4.27;;
12312;SDS011;6220;53.580;9.758;2023-07-13T05:41:14;10.97;;;5.47;;
12312;SDS011;6220;53.580;9.758;2023-07-13T05:43:39;9.87;;;4.73;;
12312;SDS011;6220;53.580;9.758;2023-07-13T05:46:04;11.83;;;4.83;;
12312;SDS011;6220;53.580;9.758;2023-07-13T05:48:30;10.50;;;4.80;;
12312;SDS011;6220;53.580;9.758;2023-07-13T05:50:55;10.30;;;4.50;;
12312;SDS011;6220;53.580;9.758;2023-07-13T05:53:20;8.07;;;4.67;;
12312;SDS011;6220;53.580;9.758;2023-07-13T05:55:46;8.43;;;4.43;;
12312;SDS011;6220;53.580;9.758;2023-07-13T05:58:13;13.07;;;5.07;;
12312;SDS011;6220;53.580;9.758;2023-07-13T06:00:38;9.13;;;4.50;;
12312;SDS011;6220;53.580;9.758;2023-07-13T06:03:04;11.27;;;4.63;;
12312;SDS011;6220;53.580;9.758;2023-07-13T06:05:31;12.07;;;5.10;;
12312;SDS011;6220;53.580;9.758;2023-07-13T06:07:58;10.77;;;5.03;;
12312;SDS011;6220;53.580;9.758;2023-07-13T06:10:24;9.53;;;4.67;;
12312;SDS011;6220;53.580;9.758;2023-07-13T06:12:49;11.40;;;4.67;;
12312;SDS011;6220;53.580;9.758;2023-07-13T06:15:15;11.37;;;4.30;;
12312;SDS011;6220;53.580;9.758;2023-07-13T06:17:41;15.10;;;4.47;;
12312;SDS011;6220;53.580;9.758;2023-07-13T06:20:06;10.80;;;4.60;;
12312;SDS011;6220;53.580;9.758;2023-07-13T06:22:32;12.53;;;4.93;;
12312;SDS011;6220;53.580;9.758;2023-07-13T06:24:57;11.67;;;4.50;;
12312;SDS011;6220;53.580;9.758;2023-07-13T06:27:22;11.80;;;4.57;;
12312;SDS011;6220;53.580;9.758;2023-07-13T06:29:48;12.67;;;4.23;;
12312;SDS011;6220;53.580;9.758;2023-07-13T06:32:13;9.60;;;4.23;;
12312;SDS011;6220;53.580;9.758;2023-07-13T06:34:39;10.83;;;4.37;;
12312;SDS011;6220;53.580;9.758;2023-07-13T06:37:04;10.73;;;4.77;;
12312;SDS011;6220;53.580;9.758;2023-07-13T06:39:30;10.63;;;5.00;;
12312;SDS011;6220;53.580;9.758;2023-07-13T06:41:55;11.00;;;3.77;;
12312;SDS011;6220;53.580;9.758;2023-07-13T06:44:20;11.23;;;4.03;;
12312;SDS011;6220;53.580;9.758;2023-07-13T06:46:46;9.27;;;4.20;;
12312;SDS011;6220;53.580;9.758;2023-07-13T06:49:11;11.73;;;4.27;;
12312;SDS011;6220;53.580;9.758;2023-07-13T06:51:36;8.57;;;3.70;;
12312;SDS011;6220;53.580;9.758;2023-07-13T06:54:02;7.87;;;4.03;;
12312;SDS011;6220;53.580;9.758;2023-07-13T06:56:28;8.67;;;4.37;;
12312;SDS011;6220;53.580;9.758;2023-07-13T06:58:53;13.43;;;4.00;;
12312;SDS011;6220;53.580;9.758;2023-07-13T07:01:18;10.13;;;4.17;;
12312;SDS011;6220;53.580;9.758;2023-07-13T07:03:44;9.93;;;3.97;;
12312;SDS011;6220;53.580;9.758;2023-07-13T07:06:12;11.07;;;4.13;;
12312;SDS011;6220;53.580;9.758;2023-07-13T07:08:42;10.40;;;4.27;;
12312;SDS011;6220;53.580;9.758;2023-07-13T07:11:09;10.87;;;4.30;;
12312;SDS011;6220;53.580;9.758;2023-07-13T07:13:38;9.53;;;3.97;;
12312;SDS011;6220;53.580;9.758;2023-07-13T07:16:03;12.93;;;4.53;;
12312;SDS011;6220;53.580;9.758;2023-07-13T07:18:29;13.70;;;4.13;;
12312;SDS011;6220;53.580;9.758;2023-07-13T07:20:54;10.87;;;3.70;;
12312;SDS011;6220;53.580;9.758;2023-07-13T07:23:19;10.43;;;3.87;;
12312;SDS011;6220;53.580;9.758;2023-07-13T07:25:45;10.87;;;4.20;;
12312;SDS011;6220;53.580;9.758;2023-07-13T07:28:11;10.47;;;4.17;;
12312;SDS011;6220;53.580;9.758;2023-07-13T07:30:41;16.90;;;4.73;;
12312;SDS011;6220;53.580;9.758;2023-07-13T07:33:07;10.60;;;3.90;;
12312;SDS011;6220;53.580;9.758;2023-07-13T07:35:33;11.07;;;4.00;;
12312;SDS011;6220;53.580;9.758;2023-07-13T07:37:58;11.73;;;4.23;;
12312;SDS011;6220;53.580;9.758;2023-07-13T07:40:23;12.77;;;4.37;;
12312;SDS011;6220;53.580;9.758;2023-07-13T07:42:49;10.30;;;3.90;;
12312;SDS011;6220;53.580;9.758;2023-07-13T07:45:14;9.57;;;3.93;;
12312;SDS011;6220;53.580;9.758;2023-07-13T07:47:40;11.57;;;4.40;;
12312;SDS011;6220;53.580;9.758;2023-07-13T07:50:05;9.37;;;3.90;;
12312;SDS011;6220;53.580;9.758;2023-07-13T07:52:31;10.80;;;3.63;;
12312;SDS011;6220;53.580;9.758;2023-07-13T07:54:56;8.97;;;3.40;;
12312;SDS011;6220;53.580;9.758;2023-07-13T07:57:22;10.83;;;3.93;;
12312;SDS011;6220;53.580;9.758;2023-07-13T07:59:47;15.37;;;3.57;;
12312;SDS011;6220;53.580;9.758;2023-07-13T08:02:13;9.50;;;3.53;;
12312;SDS011;6220;53.580;9.758;2023-07-13T08:04:38;7.87;;;3.90;;
12312;SDS011;6220;53.580;9.758;2023-07-13T08:07:04;8.17;;;3.77;;
12312;SDS011;6220;53.580;9.758;2023-07-13T08:09:29;12.43;;;4.20;;
12312;SDS011;6220;53.580;9.758;2023-07-13T08:11:55;11.10;;;3.57;;
12312;SDS011;6220;53.580;9.758;2023-07-13T08:14:20;11.37;;;4.40;;
12312;SDS011;6220;53.580;9.758;2023-07-13T08:16:46;9.07;;;3.27;;
12312;SDS011;6220;53.580;9.758;2023-07-13T08:19:11;13.93;;;4.40;;
12312;SDS011;6220;53.580;9.758;2023-07-13T08:21:37;13.47;;;3.50;;
12312;SDS011;6220;53.580;9.758;2023-07-13T08:24:02;10.07;;;3.80;;
12312;SDS011;6220;53.580;9.758;2023-07-13T08:26:28;16.07;;;4.67;;
12312;SDS011;6220;53.580;9.758;2023-07-13T08:28:53;11.03;;;3.50;;
12312;SDS011;6220;53.580;9.758;2023-07-13T08:31:19;15.17;;;3.53;;
12312;SDS011;6220;53.580;9.758;2023-07-13T08:33:44;8.07;;;3.50;;
12312;SDS011;6220;53.580;9.758;2023-07-13T08:36:10;7.43;;;2.63;;
12312;SDS011;6220;53.580;9.758;2023-07-13T08:38:35;13.77;;;3.47;;
12312;SDS011;6220;53.580;9.758;2023-07-13T08:41:02;8.07;;;3.40;;
12312;SDS011;6220;53.580;9.758;2023-07-13T08:43:35;4.90;;;2.73;;
12312;SDS011;6220;53.580;9.758;2023-07-13T08:46:09;8.50;;;2.93;;
12312;SDS011;6220;53.580;9.758;2023-07-13T08:48:54;8.73;;;3.07;;
12312;SDS011;6220;53.580;9.758;2023-07-13T08:56:48;7.07;;;2.80;;
12312;SDS011;6220;53.580;9.758;2023-07-13T08:59:19;6.90;;;3.50;;
12312;SDS011;6220;53.580;9.758;2023-07-13T09:04:19;11.37;;;3.43;;
12312;SDS011;6220;53.580;9.758;2023-07-13T09:09:20;7.63;;;3.23;;
12312;SDS011;6220;53.580;9.758;2023-07-13T09:12:17;9.70;;;3.30;;
12312;SDS011;6220;53.580;9.758;2023-07-13T09:14:57;8.77;;;3.43;;
12312;SDS011;6220;53.580;9.758;2023-07-13T09:17:25;9.07;;;3.37;;
12312;SDS011;6220;53.580;9.758;2023-07-13T09:20:03;8.17;;;3.33;;
12312;SDS011;6220;53.580;9.758;2023-07-13T09:22:41;8.33;;;2.97;;
12312;SDS011;6220;53.580;9.758;2023-07-13T09:27:39;6.13;;;2.90;;
12312;SDS011;6220;53.580;9.758;2023-07-13T09:32:41;7.23;;;3.20;;
12312;SDS011;6220;53.580;9.758;2023-07-13T09:35:12;7.00;;;2.97;;
12312;SDS011;6220;53.580;9.758;2023-07-13T09:37:38;7.27;;;2.90;;
12312;SDS011;6220;53.580;9.758;2023-07-13T09:40:07;7.40;;;3.30;;
12312;SDS011;6220;53.580;9.758;2023-07-13T09:42:38;8.50;;;3.20;;
12312;SDS011;6220;53.580;9.758;2023-07-13T09:45:04;7.80;;;2.70;;
12312;SDS011;6220;53.580;9.758;2023-07-13T09:47:32;7.20;;;2.90;;
12312;SDS011;6220;53.580;9.758;2023-07-13T09:50:03;7.87;;;3.30;;
12312;SDS011;6220;53.580;9.758;2023-07-13T09:55:11;8.97;;;3.07;;
12312;SDS011;6220;53.580;9.758;2023-07-13T09:57:48;7.13;;;2.70;;
12312;SDS011;6220;53.580;9.758;2023-07-13T10:00:25;10.70;;;2.80;;
12312;SDS011;6220;53.580;9.758;2023-07-13T10:03:09;4.73;;;2.47;;
12312;SDS011;6220;53.580;9.758;2023-07-13T10:05:42;6.70;;;2.80;;
12312;SDS011;6220;53.580;9.758;2023-07-13T10:10:51;7.00;;;2.50;;
12312;SDS011;6220;53.580;9.758;2023-07-13T10:13:27;4.60;;;2.53;;
12312;SDS011;6220;53.580;9.758;2023-07-13T10:16:01;4.87;;;2.33;;
12312;SDS011;6220;53.580;9.758;2023-07-13T10:18:28;6.50;;;2.60;;
12312;SDS011;6220;53.580;9.758;2023-07-13T10:21:09;7.77;;;2.60;;
12312;SDS011;6220;53.580;9.758;2023-07-13T10:23:37;4.47;;;2.30;;
12312;SDS011;6220;53.580;9.758;2023-07-13T10:26:02;6.23;;;2.50;;
12312;SDS011;6220;53.580;9.758;2023-07-13T10:28:33;5.40;;;2.47;;
12312;SDS011;6220;53.580;9.758;2023-07-13T10:31:01;5.03;;;2.20;;
12312;SDS011;6220;53.580;9.758;2023-07-13T10:33:27;3.33;;;2.20;;
12312;SDS011;6220;53.580;9.758;2023-07-13T10:35:55;6.27;;;2.33;;
12312;SDS011;6220;53.580;9.758;2023-07-13T10:38:37;3.37;;;2.00;;
12312;SDS011;6220;53.580;9.758;2023-07-13T10:41:04;4.37;;;2.10;;
12312;SDS011;6220;53.580;9.758;2023-07-13T10:43:36;3.77;;;2.10;;
12312;SDS011;6220;53.580;9.758;2023-07-13T10:46:08;5.17;;;2.37;;
12312;SDS011;6220;53.580;9.758;2023-07-13T10:48:36;4.43;;;2.30;;
12312;SDS011;6220;53.580;9.758;2023-07-13T10:51:03;4.07;;;2.00;;
12312;SDS011;6220;53.580;9.758;2023-07-13T10:53:31;3.23;;;2.07;;
12312;SDS011;6220;53.580;9.758;2023-07-13T10:56:05;3.87;;;2.20;;
12312;SDS011;6220;53.580;9.758;2023-07-13T11:03:38;5.77;;;2.37;;
12312;SDS011;6220;53.580;9.758;2023-07-13T11:18:49;2.87;;;1.80;;
12312;SDS011;6220;53.580;9.758;2023-07-13T11:21:35;4.23;;;2.20;;
12312;SDS011;6220;53.580;9.758;2023-07-13T11:24:42;4.27;;;2.27;;
12312;SDS011;6220;53.580;9.758;2023-07-13T11:27:28;6.00;;;2.40;;
12312;SDS011;6220;53.580;9.758;2023-07-13T11:30:08;6.40;;;2.20;;
12312;SDS011;6220;53.580;9.758;2023-07-13T11:32:50;2.90;;;1.77;;
12312;SDS011;6220;53.580;9.758;2023-07-13T11:35:19;3.67;;;1.80;;
12312;SDS011;6220;53.580;9.758;2023-07-13T11:37:49;3.20;;;1.87;;
12312;SDS011;6220;53.580;9.758;2023-07-13T11:40:14;4.73;;;2.53;;
12312;SDS011;6220;53.580;9.758;2023-07-13T11:42:40;6.07;;;3.03;;
12312;SDS011;6220;53.580;9.758;2023-07-13T11:45:14;9.07;;;6.60;;
12312;SDS011;6220;53.580;9.758;2023-07-13T11:47:45;8.47;;;5.13;;
12312;SDS011;6220;53.580;9.758;2023-07-13T11:50:20;9.50;;;3.43;;
12312;SDS011;6220;53.580;9.758;2023-07-13T11:52:46;6.07;;;2.57;;
12312;SDS011;6220;53.580;9.758;2023-07-13T11:55:16;11.33;;;8.03;;
12312;SDS011;6220;53.580;9.758;2023-07-13T12:00:23;9.20;;;2.90;;
12312;SDS011;6220;53.580;9.758;2023-07-13T12:02:52;6.23;;;2.33;;
12312;SDS011;6220;53.580;9.758;2023-07-13T12:05:19;7.80;;;2.40;;
12312;SDS011;6220;53.580;9.758;2023-07-13T12:07:46;5.50;;;2.33;;
12312;SDS011;6220;53.580;9.758;2023-07-13T12:10:25;10.37;;;2.83;;
12312;SDS011;6220;53.580;9.758;2023-07-13T12:15:22;5.50;;;2.50;;
12312;SDS011;6220;53.580;9.758;2023-07-13T12:17:49;7.37;;;2.97;;
12312;SDS011;6220;53.580;9.758;2023-07-13T12:20:20;4.53;;;2.10;;
12312;SDS011;6220;53.580;9.758;2023-07-13T12:22:58;5.53;;;2.20;;
12312;SDS011;6220;53.580;9.758;2023-07-13T12:25:24;5.33;;;1.93;;
12312;SDS011;6220;53.580;9.758;2023-07-13T12:27:50;6.33;;;2.33;;
12312;SDS011;6220;53.580;9.758;2023-07-13T12:30:27;2.40;;;2.10;;
12312;SDS011;6220;53.580;9.758;2023-07-13T12:33:07;5.17;;;1.87;;
12312;SDS011;6220;53.580;9.758;2023-07-13T12:35:40;4.30;;;2.60;;
12312;SDS011;6220;53.580;9.758;2023-07-13T12:38:10;5.70;;;2.10;;
12312;SDS011;6220;53.580;9.758;2023-07-13T12:40:36;7.10;;;2.40;;
12312;SDS011;6220;53.580;9.758;2023-07-13T12:43:02;6.63;;;2.13;;
12312;SDS011;6220;53.580;9.758;2023-07-13T12:45:29;5.10;;;2.10;;
12312;SDS011;6220;53.580;9.758;2023-07-13T12:47:56;2.67;;;1.93;;
12312;SDS011;6220;53.580;9.758;2023-07-13T12:50:28;5.10;;;2.10;;
12312;SDS011;6220;53.580;9.758;2023-07-13T12:53:02;4.37;;;1.90;;
12312;SDS011;6220;53.580;9.758;2023-07-13T12:55:28;3.80;;;1.60;;
12312;SDS011;6220;53.580;9.758;2023-07-13T12:57:58;4.17;;;1.90;;
12312;SDS011;6220;53.580;9.758;2023-07-13T13:00:28;3.73;;;1.80;;
12312;SDS011;6220;53.580;9.758;2023-07-13T13:02:57;2.93;;;1.83;;
12312;SDS011;6220;53.580;9.758;2023-07-13T13:05:26;4.23;;;1.70;;
12312;SDS011;6220;53.580;9.758;2023-07-13T13:07:52;4.30;;;1.90;;
12312;SDS011;6220;53.580;9.758;2023-07-13T13:10:17;3.70;;;1.80;;
12312;SDS011;6220;53.580;9.758;2023-07-13T13:12:43;2.70;;;1.70;;
12312;SDS011;6220;53.580;9.758;2023-07-13T13:15:09;4.00;;;2.20;;
12312;SDS011;6220;53.580;9.758;2023-07-13T13:17:36;2.87;;;2.03;;
12312;SDS011;6220;53.580;9.758;2023-07-13T13:20:01;5.37;;;2.50;;
12312;SDS011;6220;53.580;9.758;2023-07-13T13:22:27;3.30;;;2.10;;
12312;SDS011;6220;53.580;9.758;2023-07-13T13:24:52;4.50;;;2.00;;
12312;SDS011;6220;53.580;9.758;2023-07-13T13:27:18;3.37;;;1.70;;
12312;SDS011;6220;53.580;9.758;2023-07-13T13:29:45;2.83;;;1.90;;
12312;SDS011;6220;53.580;9.758;2023-07-13T13:32:12;3.13;;;2.07;;
12312;SDS011;6220;53.580;9.758;2023-07-13T13:34:38;4.17;;;2.00;;
12312;SDS011;6220;53.580;9.758;2023-07-13T13:37:04;2.87;;;2.07;;
12312;SDS011;6220;53.580;9.758;2023-07-13T13:39:39;4.27;;;2.00;;
12312;SDS011;6220;53.580;9.758;2023-07-13T13:42:05;5.50;;;1.90;;
12312;SDS011;6220;53.580;9.758;2023-07-13T13:44:30;3.60;;;1.90;;
12312;SDS011;6220;53.580;9.758;2023-07-13T13:46:56;3.37;;;1.70;;
12312;SDS011;6220;53.580;9.758;2023-07-13T13:49:23;2.47;;;1.90;;
12312;SDS011;6220;53.580;9.758;2023-07-13T13:51:50;3.20;;;2.00;;
12312;SDS011;6220;53.580;9.758;2023-07-13T13:54:16;3.17;;;2.03;;
12312;SDS011;6220;53.580;9.758;2023-07-13T13:56:43;2.87;;;2.00;;
12312;SDS011;6220;53.580;9.758;2023-07-13T13:59:10;3.40;;;2.10;;
12312;SDS011;6220;53.580;9.758;2023-07-13T14:01:37;4.53;;;2.40;;
12312;SDS011;6220;53.580;9.758;2023-07-13T14:04:03;3.40;;;1.90;;
12312;SDS011;6220;53.580;9.758;2023-07-13T14:06:29;3.80;;;1.80;;
12312;SDS011;6220;53.580;9.758;2023-07-13T14:08:54;6.97;;;2.07;;
12312;SDS011;6220;53.580;9.758;2023-07-13T14:11:20;2.80;;;1.70;;
12312;SDS011;6220;53.580;9.758;2023-07-13T14:13:56;5.63;;;2.27;;
12312;SDS011;6220;53.580;9.758;2023-07-13T14:16:25;5.17;;;2.20;;
12312;SDS011;6220;53.580;9.758;2023-07-13T14:18:53;3.23;;;2.20;;
12312;SDS011;6220;53.580;9.758;2023-07-13T14:21:20;2.90;;;2.17;;
12312;SDS011;6220;53.580;9.758;2023-07-13T14:23:46;4.10;;;2.20;;
12312;SDS011;6220;53.580;9.758;2023-07-13T14:26:20;3.20;;;2.00;;
12312;SDS011;6220;53.580;9.758;2023-07-13T14:28:47;3.60;;;2.23;;
12312;SDS011;6220;53.580;9.758;2023-07-13T14:31:15;4.50;;;2.47;;
12312;SDS011;6220;53.580;9.758;2023-07-13T14:33:41;3.67;;;2.27;;
12312;SDS011;6220;53.580;9.758;2023-07-13T14:38:51;2.23;;;1.80;;
12312;SDS011;6220;53.580;9.758;2023-07-13T14:41:17;2.40;;;2.20;;
12312;SDS011;6220;53.580;9.758;2023-07-13T14:43:42;4.97;;;2.07;;
12312;SDS011;6220;53.580;9.758;2023-07-13T14:46:11;4.53;;;2.10;;
12312;SDS011;6220;53.580;9.758;2023-07-13T14:48:47;2.47;;;1.77;;
12312;SDS011;6220;53.580;9.758;2023-07-13T14:51:13;5.53;;;2.60;;
12312;SDS011;6220;53.580;9.758;2023-07-13T14:53:38;3.50;;;2.20;;
12312;SDS011;6220;53.580;9.758;2023-07-13T14:56:09;5.00;;;2.57;;
12312;SDS011;6220;53.580;9.758;2023-07-13T14:58:37;4.23;;;2.20;;
12312;SDS011;6220;53.580;9.758;2023-07-13T15:01:08;4.20;;;2.00;;
12312;SDS011;6220;53.580;9.758;2023-07-13T15:03:39;3.80;;;2.20;;
12312;SDS011;6220;53.580;9.758;2023-07-13T15:06:13;4.67;;;2.17;;
12312;SDS011;6220;53.580;9.758;2023-07-13T15:08:39;3.03;;;2.10;;
12312;SDS011;6220;53.580;9.758;2023-07-13T15:11:05;2.57;;;2.37;;
12312;SDS011;6220;53.580;9.758;2023-07-13T15:13:32;4.23;;;2.47;;
12312;SDS011;6220;53.580;9.758;2023-07-13T15:15:57;3.33;;;2.10;;
12312;SDS011;6220;53.580;9.758;2023-07-13T15:18:23;4.00;;;2.20;;
12312;SDS011;6220;53.580;9.758;2023-07-13T15:20:50;5.10;;;1.90;;
12312;SDS011;6220;53.580;9.758;2023-07-13T15:23:17;3.90;;;2.13;;
12312;SDS011;6220;53.580;9.758;2023-07-13T15:25:43;1.97;;;1.60;;
12312;SDS011;6220;53.580;9.758;2023-07-13T15:28:10;2.37;;;1.63;;
12312;SDS011;6220;53.580;9.758;2023-07-13T15:30:41;4.43;;;2.03;;
12312;SDS011;6220;53.580;9.758;2023-07-13T15:33:13;2.93;;;1.80;;
12312;SDS011;6220;53.580;9.758;2023-07-13T15:35:44;3.00;;;1.70;;
12312;SDS011;6220;53.580;9.758;2023-07-13T15:38:14;2.77;;;1.77;;
12312;SDS011;6220;53.580;9.758;2023-07-13T15:40:41;5.23;;;1.87;;
12312;SDS011;6220;53.580;9.758;2023-07-13T15:43:10;2.53;;;1.40;;
12312;SDS011;6220;53.580;9.758;2023-07-13T15:45:36;4.57;;;1.67;;
12312;SDS011;6220;53.580;9.758;2023-07-13T15:48:05;3.40;;;1.50;;